Indianola, Texas
Current Conditions -  °F | °C
As of 4:35 AM on Monday 20 Oct 2014 (Local Time) from KPKV Reporting Station
Clear Clear  
Wind Chill: 69°   Ceiling: Unl
Heat Index: 69°   Visibility: 10mi
Dew Point: 67°   Wind: 9mph
Humidity: 92%   Direction: 60°ENE
Pressure: 29.97"   Gusts: NA
Location:  28.5342°N, 96.663°W
Report Text: KPKV 200935Z AUTO 06008KT 10SM CLR 21/19 A2997 RMK AO2 T02080194
Loading
Personal Weather Stations






























Interactive Weather Map
Tropical Storm Tracking
New forecast layout! Learn more

10-Day Weather Forecast

Advertisements
Track Severe Weather on mobile